Northern Sonoma County Latest

25 Stations

15 Minute Data | America/Los_Angeles
as of 5/9/26 6:05 PM PDT
Station Date Time Temp (°F) RH (%) Dew Pt (°F) Wind Spd (mph) Wind Dir (°) Wind Gust (mph) Latest Rain (In) Daily Rain (In) Daily Max Temp (°F) Daily Min Temp (°F)
Bavarian Lion EFW 5/9/26 1800 81.2   2.3 - - - - - 0.00 0.00 85.1   4.3 47.0   4.7
Rockpile Lower (Cooley) 5/9/26 1730 76.0   2.8 32   1 43.7   3.0 17.1   2.6 W | 273 23.8   2.7 0.00 0.00 84.5   6.8 53.4   6.8
Rockpile Upper (Cooley) 5/9/26 1800 70.9   1.7 38   3 44.3   3.7 19.9   3.9 NW | 320 27.8   2.4 0.00 0.00 80.9   4.2 50.9   7.4
Lower Dry Creek Valley 5/9/26 1800 77.3   2.3 49   4 56.4   0.1 5.3   0.2 SSE | 150 9.6   0.9 0.00 0.00 82.1   3.4 46.9   2.5
Geyserville-South (Nervo Station) 5/9/26 1800 77.4   2.0 - - 4.5   0.4 S | 191 7.8   1.0 0.00 0.00 82.2   3.3 48.6   1.3
Franz Valley (Stornetta) 5/9/26 1800 79.8   1.4 40   7 53.5   3.1 2.7   0.5 WSW | 246 6.3   1.1 0.00 0.00 82.4   3.3 45.4   5.6
Geyserville (Ranch 3) 5/9/26 1800 81.3   2.7 42   8 56.2   2.1 3.2   1.6 ESE | 113 6.0   2.5 0.00 0.00 85.0   4.2 48.5   1.1
Geyserville-North (Hoffman) 5/9/26 1800 82.2   2.6 46   6 59.4   1.0 3.4   1.1 SE | 146 6.0   1.8 0.00 0.00 86.4   4.2 46.5   0.0
Knights Valley (Bavarian Lion) 5/9/26 1800 78.7   1.5 43   7 54.5   2.6 4.2   0.2 WSW | 247 8.1   0.8 0.00 0.00 83.3   4.4 46.3   4.7
HWY 128/Chalk Hill Rd (Landslide) 5/9/26 1800 78.8   2.5 46   6 56.5   1.3 4.6   0.5 SW | 214 8.3   0.4 0.00 0.00 83.1   3.9 46.5   6.0
Newman Knights Valley 5/9/26 1800 77.5   2.3 62   4 63.4   0.2 5.2   0.6 SW | 226 8.1   1.4 0.00 0.00 81.8   3.8 47.6   4.5
Jimtown-North (Piccolo Ranch 15) 5/9/26 1800 80.5   3.0 41   7 54.9   1.6 1.6   0.8 SE | 129 5.5   2.2 0.00 0.00 83.7   3.4 46.4   4.1
Peterson (Ranch 09) 5/9/26 1800 77.5   2.3 45   7 54.2   1.9 6.5   0.5 S | 187 9.6   1.2 0.00 0.00 82.8   3.6 47.1   0.3
Cloverdale-SE (Ranch 38) 5/9/26 1800 82.6   1.9 45   13 59.2   10.7 5.7   0.5 SSW | 202 9.5   2.2 0.00 0.00 86.1   1.1 51.1   3.9
Geyserville-East (Ranch 40) 5/9/26 1800 77.0   2.9 51   9 57.4   1.9 8.7   0.7 SSW | 197 12.2   1.5 0.00 0.00 82.7   3.7 49.9   1.9
N Chalk Hill Rd (Ranch 63) 5/9/26 1800 77.5   2.0 44   7 54.2   2.0 5.0   0.3 S | 186 7.4   1.0 0.00 0.00 82.1   4.1 45.3   4.9
Cloverdale-East (Ranch 83) 5/9/26 1800 85.2   2.2 - - 6.0   1.1 WNW | 297 12.2   1.8 0.00 0.00 88.8   2.4 47.9   2.1
Crazy Creek Ranch 5/9/26 1800 80.2   2.5 49   8 59.2   1.9 3.3   0.6 SSE | 156 6.4   1.6 0.00 0.00 84.5   4.0 47.6   4.6
Lytton East (Hill 5) 5/9/26 1800 76.1   3.2 51   6 56.5   0.2 6.5   1.6 S | 178 10.2   1.1 0.00 0.00 81.7   4.0 47.2   0.3
Lytton East (Shop Hill Bottom) 5/9/26 1800 76.5   2.7 49   6 56.0   0.7 5.0   0.2 SSE | 160 8.7   0.3 0.00 0.00 81.3   3.2 45.2   1.4
Lytton West Hill (23PS) 5/9/26 1800 76.6   3.2 49   5 56.2   0.1 5.4   1.6 SSE | 159 10.6   0.4 0.00 0.00 81.2   3.2 48.0   2.0
Lytton West Lower (Lew 6) 5/9/26 1800 77.1   2.6 49   5 56.7   0.3 5.3   0.5 SSE | 164 8.8   1.7 0.00 0.00 82.3   3.7 44.4   3.5
Whitton Ranch (201e) 5/9/26 1800 80.0   2.9 44   8 56.2   1.7 4.0   0.3 SSW | 193 7.7   0.5 0.00 0.00 84.1   3.3 43.0   0.0
Upper Dry Creek Valley 5/9/26 1730 81.3   1.5 44   6 57.2   2.1 4.8   0.6 SSE | 152 9.7   0.9 0.00 0.00 84.3   2.8 45.8   1.0
Big River 5/9/26 1800 76.0   2.1 51   7 56.6   1.6 5.1   0.3 S | 182 8.6   1.3 0.00 0.00 81.0   3.7 48.4   0.8
Max     85.2 62 63.4 19.9 - 27.8 0.00 0.00 88.8 53.4
Avg     78.6 46 55.6 6.0 - 9.9 0.00 - - -
Min     70.9 32 43.7 1.6 - 5.5 0.00 0.00 80.9 43.0